sensor_id;sensor_type;location;lat;lon;timestamp;P1;durP1;ratioP1;P2;durP2;ratioP2
29816;SDS011;16805;52.956;5.906;2022-09-09T00:09:18;4.82;;;4.40;;
29816;SDS011;16805;52.956;5.906;2022-09-09T00:11:48;6.30;;;4.45;;
29816;SDS011;16805;52.956;5.906;2022-09-09T00:17:26;5.00;;;4.25;;
29816;SDS011;16805;52.956;5.906;2022-09-09T00:22:53;7.80;;;4.47;;
29816;SDS011;16805;52.956;5.906;2022-09-09T00:25:49;6.13;;;4.45;;
29816;SDS011;16805;52.956;5.906;2022-09-09T00:28:26;5.22;;;4.63;;
29816;SDS011;16805;52.956;5.906;2022-09-09T00:30:52;6.93;;;4.45;;
29816;SDS011;16805;52.956;5.906;2022-09-09T00:33:22;6.10;;;4.30;;
29816;SDS011;16805;52.956;5.906;2022-09-09T00:35:52;4.18;;;3.75;;
29816;SDS011;16805;52.956;5.906;2022-09-09T00:38:25;5.63;;;4.22;;
29816;SDS011;16805;52.956;5.906;2022-09-09T00:41:05;6.70;;;4.30;;
29816;SDS011;16805;52.956;5.906;2022-09-09T00:43:38;5.60;;;3.60;;
29816;SDS011;16805;52.956;5.906;2022-09-09T00:46:14;5.28;;;4.15;;
29816;SDS011;16805;52.956;5.906;2022-09-09T00:59:59;5.35;;;3.47;;
29816;SDS011;16805;52.956;5.906;2022-09-09T01:02:52;6.25;;;3.90;;
29816;SDS011;16805;52.956;5.906;2022-09-09T01:11:21;4.97;;;3.20;;
29816;SDS011;16805;52.956;5.906;2022-09-09T01:13:55;5.25;;;3.83;;
29816;SDS011;16805;52.956;5.906;2022-09-09T01:16:35;5.13;;;3.00;;
29816;SDS011;16805;52.956;5.906;2022-09-09T01:19:01;6.20;;;3.15;;
29816;SDS011;16805;52.956;5.906;2022-09-09T01:26:39;4.30;;;3.00;;
29816;SDS011;16805;52.956;5.906;2022-09-09T01:29:09;5.25;;;3.15;;
29816;SDS011;16805;52.956;5.906;2022-09-09T01:31:52;4.35;;;3.58;;
29816;SDS011;16805;52.956;5.906;2022-09-09T01:34:21;6.50;;;3.45;;
29816;SDS011;16805;52.956;5.906;2022-09-09T01:37:05;10.70;;;3.72;;
29816;SDS011;16805;52.956;5.906;2022-09-09T01:39:33;6.93;;;3.95;;
29816;SDS011;16805;52.956;5.906;2022-09-09T01:42:01;6.32;;;3.40;;
29816;SDS011;16805;52.956;5.906;2022-09-09T01:44:29;3.45;;;3.15;;
29816;SDS011;16805;52.956;5.906;2022-09-09T01:46:55;5.05;;;3.03;;
29816;SDS011;16805;52.956;5.906;2022-09-09T01:49:21;5.38;;;3.15;;
29816;SDS011;16805;52.956;5.906;2022-09-09T01:51:48;2.72;;;2.53;;
29816;SDS011;16805;52.956;5.906;2022-09-09T01:54:17;3.85;;;3.55;;
29816;SDS011;16805;52.956;5.906;2022-09-09T02:00:31;3.40;;;3.10;;
29816;SDS011;16805;52.956;5.906;2022-09-09T02:02:30;5.50;;;3.53;;
29816;SDS011;16805;52.956;5.906;2022-09-09T02:08:06;4.28;;;3.88;;
29816;SDS011;16805;52.956;5.906;2022-09-09T02:10:42;5.53;;;3.30;;
29816;SDS011;16805;52.956;5.906;2022-09-09T02:13:16;6.03;;;3.78;;
29816;SDS011;16805;52.956;5.906;2022-09-09T02:18:21;4.75;;;3.17;;
29816;SDS011;16805;52.956;5.906;2022-09-09T02:21:04;5.10;;;3.70;;
29816;SDS011;16805;52.956;5.906;2022-09-09T02:26:18;4.47;;;3.38;;
29816;SDS011;16805;52.956;5.906;2022-09-09T02:28:49;6.30;;;3.05;;
29816;SDS011;16805;52.956;5.906;2022-09-09T02:31:19;5.43;;;3.45;;
29816;SDS011;16805;52.956;5.906;2022-09-09T02:33:57;4.43;;;2.97;;
29816;SDS011;16805;52.956;5.906;2022-09-09T02:36:26;3.08;;;2.63;;
29816;SDS011;16805;52.956;5.906;2022-09-09T02:38:56;3.88;;;3.45;;
29816;SDS011;16805;52.956;5.906;2022-09-09T02:41:31;4.57;;;3.10;;
29816;SDS011;16805;52.956;5.906;2022-09-09T02:43:59;3.50;;;3.05;;
29816;SDS011;16805;52.956;5.906;2022-09-09T02:52:15;5.32;;;3.75;;
29816;SDS011;16805;52.956;5.906;2022-09-09T02:54:43;3.92;;;3.50;;
29816;SDS011;16805;52.956;5.906;2022-09-09T02:57:17;4.30;;;3.08;;
29816;SDS011;16805;52.956;5.906;2022-09-09T02:59:50;7.38;;;4.10;;
29816;SDS011;16805;52.956;5.906;2022-09-09T03:02:17;6.32;;;3.88;;
29816;SDS011;16805;52.956;5.906;2022-09-09T03:04:43;4.80;;;4.07;;
29816;SDS011;16805;52.956;5.906;2022-09-09T03:07:09;4.25;;;3.85;;
29816;SDS011;16805;52.956;5.906;2022-09-09T03:09:37;7.78;;;3.63;;
29816;SDS011;16805;52.956;5.906;2022-09-09T03:12:02;4.63;;;3.45;;
29816;SDS011;16805;52.956;5.906;2022-09-09T03:14:29;5.25;;;3.17;;
29816;SDS011;16805;52.956;5.906;2022-09-09T03:16:56;3.50;;;3.10;;
29816;SDS011;16805;52.956;5.906;2022-09-09T03:19:22;5.30;;;2.80;;
29816;SDS011;16805;52.956;5.906;2022-09-09T03:21:48;6.18;;;2.60;;
29816;SDS011;16805;52.956;5.906;2022-09-09T03:24:14;2.92;;;2.63;;
29816;SDS011;16805;52.956;5.906;2022-09-09T03:26:41;7.38;;;2.33;;
29816;SDS011;16805;52.956;5.906;2022-09-09T03:29:09;5.15;;;2.20;;
29816;SDS011;16805;52.956;5.906;2022-09-09T03:31:37;2.38;;;1.83;;
29816;SDS011;16805;52.956;5.906;2022-09-09T03:34:03;4.20;;;2.17;;
29816;SDS011;16805;52.956;5.906;2022-09-09T03:36:29;5.72;;;1.70;;
29816;SDS011;16805;52.956;5.906;2022-09-09T03:38:55;2.70;;;1.52;;
29816;SDS011;16805;52.956;5.906;2022-09-09T03:41:23;2.03;;;1.67;;
29816;SDS011;16805;52.956;5.906;2022-09-09T03:43:50;2.80;;;1.80;;
29816;SDS011;16805;52.956;5.906;2022-09-09T03:46:16;5.07;;;2.35;;
29816;SDS011;16805;52.956;5.906;2022-09-09T03:48:46;1.85;;;1.50;;
29816;SDS011;16805;52.956;5.906;2022-09-09T03:51:12;2.22;;;1.83;;
29816;SDS011;16805;52.956;5.906;2022-09-09T03:53:38;4.47;;;1.85;;
29816;SDS011;16805;52.956;5.906;2022-09-09T03:56:05;2.30;;;1.73;;
29816;SDS011;16805;52.956;5.906;2022-09-09T03:58:32;3.13;;;1.40;;
29816;SDS011;16805;52.956;5.906;2022-09-09T04:00:59;5.13;;;1.90;;
29816;SDS011;16805;52.956;5.906;2022-09-09T04:03:27;4.35;;;2.13;;
29816;SDS011;16805;52.956;5.906;2022-09-09T04:05:54;3.28;;;2.05;;
29816;SDS011;16805;52.956;5.906;2022-09-09T04:08:21;4.72;;;2.22;;
29816;SDS011;16805;52.956;5.906;2022-09-09T04:10:48;3.88;;;2.42;;
29816;SDS011;16805;52.956;5.906;2022-09-09T04:13:14;3.05;;;2.08;;
29816;SDS011;16805;52.956;5.906;2022-09-09T04:15:43;2.97;;;1.88;;
29816;SDS011;16805;52.956;5.906;2022-09-09T04:18:10;3.58;;;2.03;;
29816;SDS011;16805;52.956;5.906;2022-09-09T04:20:36;3.08;;;1.80;;
29816;SDS011;16805;52.956;5.906;2022-09-09T04:23:03;4.47;;;3.20;;
29816;SDS011;16805;52.956;5.906;2022-09-09T04:25:30;3.20;;;2.45;;
29816;SDS011;16805;52.956;5.906;2022-09-09T04:27:56;3.22;;;2.78;;
29816;SDS011;16805;52.956;5.906;2022-09-09T04:30:23;5.82;;;2.80;;
29816;SDS011;16805;52.956;5.906;2022-09-09T04:32:50;4.93;;;2.30;;
29816;SDS011;16805;52.956;5.906;2022-09-09T04:35:15;3.67;;;2.75;;
29816;SDS011;16805;52.956;5.906;2022-09-09T04:37:41;2.95;;;2.45;;
29816;SDS011;16805;52.956;5.906;2022-09-09T04:40:07;3.22;;;2.22;;
29816;SDS011;16805;52.956;5.906;2022-09-09T04:42:37;6.43;;;2.50;;
29816;SDS011;16805;52.956;5.906;2022-09-09T04:45:04;4.60;;;3.05;;
29816;SDS011;16805;52.956;5.906;2022-09-09T04:47:31;5.05;;;3.03;;
29816;SDS011;16805;52.956;5.906;2022-09-09T04:50:00;3.72;;;3.03;;
29816;SDS011;16805;52.956;5.906;2022-09-09T04:52:25;5.20;;;3.28;;
29816;SDS011;16805;52.956;5.906;2022-09-09T04:54:51;5.75;;;3.50;;
29816;SDS011;16805;52.956;5.906;2022-09-09T04:57:19;4.63;;;3.72;;
29816;SDS011;16805;52.956;5.906;2022-09-09T04:59:44;5.60;;;3.45;;
29816;SDS011;16805;52.956;5.906;2022-09-09T05:02:10;4.68;;;3.70;;
29816;SDS011;16805;52.956;5.906;2022-09-09T05:04:36;4.78;;;3.83;;
29816;SDS011;16805;52.956;5.906;2022-09-09T05:07:02;6.13;;;3.60;;
29816;SDS011;16805;52.956;5.906;2022-09-09T05:09:27;6.03;;;4.35;;
29816;SDS011;16805;52.956;5.906;2022-09-09T05:11:54;4.95;;;3.83;;
29816;SDS011;16805;52.956;5.906;2022-09-09T05:14:19;10.60;;;4.55;;
29816;SDS011;16805;52.956;5.906;2022-09-09T05:16:45;7.72;;;4.32;;
29816;SDS011;16805;52.956;5.906;2022-09-09T05:19:12;7.45;;;4.80;;
29816;SDS011;16805;52.956;5.906;2022-09-09T05:21:37;7.65;;;5.05;;
29816;SDS011;16805;52.956;5.906;2022-09-09T05:24:03;6.07;;;4.35;;
29816;SDS011;16805;52.956;5.906;2022-09-09T05:26:29;12.00;;;4.95;;
29816;SDS011;16805;52.956;5.906;2022-09-09T05:28:55;5.90;;;4.22;;
29816;SDS011;16805;52.956;5.906;2022-09-09T05:31:21;5.05;;;4.30;;
29816;SDS011;16805;52.956;5.906;2022-09-09T05:33:47;6.93;;;4.78;;
29816;SDS011;16805;52.956;5.906;2022-09-09T05:38:40;5.60;;;4.43;;
29816;SDS011;16805;52.956;5.906;2022-09-09T05:41:06;6.57;;;4.25;;
29816;SDS011;16805;52.956;5.906;2022-09-09T05:43:32;5.30;;;4.60;;
29816;SDS011;16805;52.956;5.906;2022-09-09T05:46:06;7.07;;;4.70;;
29816;SDS011;16805;52.956;5.906;2022-09-09T05:48:34;8.73;;;4.60;;
29816;SDS011;16805;52.956;5.906;2022-09-09T05:51:02;6.30;;;4.85;;
29816;SDS011;16805;52.956;5.906;2022-09-09T05:53:29;6.13;;;5.18;;
29816;SDS011;16805;52.956;5.906;2022-09-09T05:56:12;7.88;;;5.45;;
29816;SDS011;16805;52.956;5.906;2022-09-09T05:58:50;6.03;;;5.25;;
29816;SDS011;16805;52.956;5.906;2022-09-09T06:01:20;5.97;;;5.38;;
29816;SDS011;16805;52.956;5.906;2022-09-09T06:03:48;8.97;;;6.13;;
29816;SDS011;16805;52.956;5.906;2022-09-09T06:06:15;6.82;;;5.18;;
29816;SDS011;16805;52.956;5.906;2022-09-09T06:08:43;8.43;;;5.60;;
29816;SDS011;16805;52.956;5.906;2022-09-09T06:11:20;7.32;;;5.68;;
29816;SDS011;16805;52.956;5.906;2022-09-09T06:13:48;5.65;;;4.68;;
29816;SDS011;16805;52.956;5.906;2022-09-09T06:16:17;5.90;;;4.32;;
29816;SDS011;16805;52.956;5.906;2022-09-09T06:18:44;6.07;;;4.90;;
29816;SDS011;16805;52.956;5.906;2022-09-09T06:21:15;7.15;;;5.30;;
29816;SDS011;16805;52.956;5.906;2022-09-09T06:23:42;5.80;;;5.20;;
29816;SDS011;16805;52.956;5.906;2022-09-09T06:26:27;5.75;;;4.80;;
29816;SDS011;16805;52.956;5.906;2022-09-09T06:28:55;6.65;;;4.93;;
29816;SDS011;16805;52.956;5.906;2022-09-09T06:31:23;7.53;;;5.55;;
29816;SDS011;16805;52.956;5.906;2022-09-09T06:33:55;7.13;;;5.40;;
29816;SDS011;16805;52.956;5.906;2022-09-09T06:38:48;7.30;;;5.40;;
29816;SDS011;16805;52.956;5.906;2022-09-09T06:41:15;7.47;;;5.35;;
29816;SDS011;16805;52.956;5.906;2022-09-09T06:43:43;5.93;;;5.32;;
29816;SDS011;16805;52.956;5.906;2022-09-09T06:46:10;5.60;;;5.05;;
29816;SDS011;16805;52.956;5.906;2022-09-09T06:48:44;6.10;;;5.00;;
29816;SDS011;16805;52.956;5.906;2022-09-09T06:51:12;6.70;;;5.63;;
29816;SDS011;16805;52.956;5.906;2022-09-09T06:53:43;5.15;;;4.63;;
29816;SDS011;16805;52.956;5.906;2022-09-09T06:58:35;6.15;;;4.82;;
29816;SDS011;16805;52.956;5.906;2022-09-09T07:01:03;10.07;;;4.45;;
29816;SDS011;16805;52.956;5.906;2022-09-09T07:03:29;4.60;;;3.97;;
29816;SDS011;16805;52.956;5.906;2022-09-09T07:05:55;6.68;;;4.32;;
29816;SDS011;16805;52.956;5.906;2022-09-09T07:08:21;5.50;;;4.13;;
29816;SDS011;16805;52.956;5.906;2022-09-09T07:10:47;5.70;;;5.13;;
29816;SDS011;16805;52.956;5.906;2022-09-09T07:13:14;6.40;;;4.55;;
29816;SDS011;16805;52.956;5.906;2022-09-09T07:15:40;7.50;;;4.65;;
29816;SDS011;16805;52.956;5.906;2022-09-09T07:18:07;5.88;;;4.25;;
29816;SDS011;16805;52.956;5.906;2022-09-09T07:20:35;6.25;;;4.82;;
29816;SDS011;16805;52.956;5.906;2022-09-09T07:23:00;6.22;;;4.88;;
29816;SDS011;16805;52.956;5.906;2022-09-09T07:25:26;5.90;;;4.15;;
29816;SDS011;16805;52.956;5.906;2022-09-09T07:27:53;6.72;;;4.15;;
29816;SDS011;16805;52.956;5.906;2022-09-09T07:30:19;8.45;;;5.00;;
29816;SDS011;16805;52.956;5.906;2022-09-09T07:32:45;6.20;;;4.25;;
29816;SDS011;16805;52.956;5.906;2022-09-09T07:35:11;5.70;;;3.38;;
29816;SDS011;16805;52.956;5.906;2022-09-09T07:37:37;4.38;;;3.33;;
29816;SDS011;16805;52.956;5.906;2022-09-09T07:40:03;7.57;;;3.95;;
29816;SDS011;16805;52.956;5.906;2022-09-09T07:42:30;7.18;;;3.72;;
29816;SDS011;16805;52.956;5.906;2022-09-09T07:44:56;6.45;;;3.92;;
29816;SDS011;16805;52.956;5.906;2022-09-09T07:47:21;4.47;;;3.30;;
29816;SDS011;16805;52.956;5.906;2022-09-09T07:49:49;3.63;;;3.30;;
29816;SDS011;16805;52.956;5.906;2022-09-09T07:52:15;4.25;;;3.35;;
29816;SDS011;16805;52.956;5.906;2022-09-09T07:54:41;5.53;;;2.95;;
29816;SDS011;16805;52.956;5.906;2022-09-09T07:57:07;5.18;;;2.92;;
29816;SDS011;16805;52.956;5.906;2022-09-09T07:59:33;4.63;;;2.78;;
29816;SDS011;16805;52.956;5.906;2022-09-09T08:01:59;5.57;;;2.75;;
29816;SDS011;16805;52.956;5.906;2022-09-09T08:04:25;6.35;;;2.80;;
29816;SDS011;16805;52.956;5.906;2022-09-09T08:06:55;5.75;;;2.55;;
29816;SDS011;16805;52.956;5.906;2022-09-09T08:09:22;5.38;;;2.65;;
29816;SDS011;16805;52.956;5.906;2022-09-09T08:11:53;6.70;;;2.40;;
29816;SDS011;16805;52.956;5.906;2022-09-09T08:14:21;5.80;;;2.45;;
29816;SDS011;16805;52.956;5.906;2022-09-09T08:16:48;4.60;;;1.75;;
29816;SDS011;16805;52.956;5.906;2022-09-09T08:19:15;5.03;;;2.15;;
29816;SDS011;16805;52.956;5.906;2022-09-09T08:21:42;6.38;;;2.13;;
29816;SDS011;16805;52.956;5.906;2022-09-09T08:24:09;3.85;;;2.35;;
29816;SDS011;16805;52.956;5.906;2022-09-09T08:26:38;4.88;;;1.70;;
29816;SDS011;16805;52.956;5.906;2022-09-09T08:29:08;8.43;;;2.43;;
29816;SDS011;16805;52.956;5.906;2022-09-09T08:31:36;6.00;;;2.17;;
29816;SDS011;16805;52.956;5.906;2022-09-09T08:34:03;7.53;;;1.88;;
29816;SDS011;16805;52.956;5.906;2022-09-09T08:36:34;5.45;;;1.70;;
29816;SDS011;16805;52.956;5.906;2022-09-09T08:39:05;8.68;;;2.42;;
29816;SDS011;16805;52.956;5.906;2022-09-09T08:44:50;3.97;;;2.15;;
29816;SDS011;16805;52.956;5.906;2022-09-09T08:47:32;6.80;;;1.90;;
29816;SDS011;16805;52.956;5.906;2022-09-09T08:55:47;3.30;;;1.65;;
29816;SDS011;16805;52.956;5.906;2022-09-09T08:58:27;3.38;;;1.70;;
29816;SDS011;16805;52.956;5.906;2022-09-09T09:06:21;5.57;;;1.77;;
29816;SDS011;16805;52.956;5.906;2022-09-09T09:09:01;4.25;;;1.90;;
29816;SDS011;16805;52.956;5.906;2022-09-09T09:11:40;3.92;;;1.65;;
29816;SDS011;16805;52.956;5.906;2022-09-09T09:17:00;5.97;;;1.73;;
29816;SDS011;16805;52.956;5.906;2022-09-09T09:19:28;7.60;;;1.63;;
29816;SDS011;16805;52.956;5.906;2022-09-09T09:27:11;4.10;;;1.63;;
29816;SDS011;16805;52.956;5.906;2022-09-09T09:29:39;3.22;;;1.25;;
29816;SDS011;16805;52.956;5.906;2022-09-09T09:32:07;7.30;;;1.60;;
29816;SDS011;16805;52.956;5.906;2022-09-09T09:34:39;2.97;;;1.27;;
29816;SDS011;16805;52.956;5.906;2022-09-09T09:37:12;4.45;;;1.52;;
29816;SDS011;16805;52.956;5.906;2022-09-09T09:39:44;7.75;;;1.50;;
29816;SDS011;16805;52.956;5.906;2022-09-09T09:42:14;5.50;;;1.20;;
29816;SDS011;16805;52.956;5.906;2022-09-09T09:44:42;3.92;;;1.10;;
29816;SDS011;16805;52.956;5.906;2022-09-09T09:47:10;5.15;;;1.38;;
29816;SDS011;16805;52.956;5.906;2022-09-09T09:49:57;5.05;;;1.10;;
29816;SDS011;16805;52.956;5.906;2022-09-09T09:52:25;3.92;;;1.00;;
29816;SDS011;16805;52.956;5.906;2022-09-09T09:54:53;2.83;;;0.98;;
29816;SDS011;16805;52.956;5.906;2022-09-09T09:57:28;5.30;;;1.23;;
29816;SDS011;16805;52.956;5.906;2022-09-09T10:02:43;3.20;;;0.90;;
29816;SDS011;16805;52.956;5.906;2022-09-09T10:07:43;1.85;;;0.60;;
29816;SDS011;16805;52.956;5.906;2022-09-09T10:10:12;4.50;;;1.13;;
29816;SDS011;16805;52.956;5.906;2022-09-09T10:15:38;4.90;;;1.00;;
29816;SDS011;16805;52.956;5.906;2022-09-09T10:26:48;5.07;;;1.00;;
29816;SDS011;16805;52.956;5.906;2022-09-09T10:32:46;2.83;;;0.80;;
29816;SDS011;16805;52.956;5.906;2022-09-09T10:38:11;6.97;;;0.98;;
29816;SDS011;16805;52.956;5.906;2022-09-09T10:59:41;4.63;;;1.08;;
29816;SDS011;16805;52.956;5.906;2022-09-09T11:05:02;4.53;;;1.13;;
29816;SDS011;16805;52.956;5.906;2022-09-09T11:07:40;2.25;;;0.68;;
29816;SDS011;16805;52.956;5.906;2022-09-09T11:10:26;6.38;;;0.80;;
29816;SDS011;16805;52.956;5.906;2022-09-09T11:13:05;2.92;;;1.08;;
29816;SDS011;16805;52.956;5.906;2022-09-09T11:15:49;3.33;;;0.90;;
29816;SDS011;16805;52.956;5.906;2022-09-09T11:18:20;4.28;;;0.90;;
29816;SDS011;16805;52.956;5.906;2022-09-09T11:20:49;3.55;;;0.60;;
29816;SDS011;16805;52.956;5.906;2022-09-09T11:23:25;4.60;;;1.05;;
29816;SDS011;16805;52.956;5.906;2022-09-09T11:26:04;3.55;;;0.90;;
29816;SDS011;16805;52.956;5.906;2022-09-09T11:28:39;2.33;;;0.70;;
29816;SDS011;16805;52.956;5.906;2022-09-09T11:31:53;4.07;;;1.10;;
29816;SDS011;16805;52.956;5.906;2022-09-09T11:42:39;2.33;;;0.90;;
29816;SDS011;16805;52.956;5.906;2022-09-09T11:45:15;7.72;;;1.17;;
29816;SDS011;16805;52.956;5.906;2022-09-09T11:47:52;2.22;;;0.88;;
29816;SDS011;16805;52.956;5.906;2022-09-09T11:52:48;3.85;;;0.60;;
29816;SDS011;16805;52.956;5.906;2022-09-09T12:00:45;4.10;;;1.05;;
29816;SDS011;16805;52.956;5.906;2022-09-09T12:06:19;5.15;;;1.08;;
29816;SDS011;16805;52.956;5.906;2022-09-09T12:08:50;10.60;;;1.35;;
29816;SDS011;16805;52.956;5.906;2022-09-09T12:11:28;3.83;;;0.95;;
29816;SDS011;16805;52.956;5.906;2022-09-09T12:13:56;4.55;;;1.15;;
29816;SDS011;16805;52.956;5.906;2022-09-09T12:16:29;4.95;;;1.45;;
29816;SDS011;16805;52.956;5.906;2022-09-09T12:19:06;4.07;;;0.90;;
29816;SDS011;16805;52.956;5.906;2022-09-09T12:24:34;3.28;;;0.82;;
29816;SDS011;16805;52.956;5.906;2022-09-09T12:27:19;4.35;;;1.00;;
29816;SDS011;16805;52.956;5.906;2022-09-09T12:29:59;5.65;;;0.95;;
29816;SDS011;16805;52.956;5.906;2022-09-09T12:32:34;2.72;;;0.70;;
29816;SDS011;16805;52.956;5.906;2022-09-09T12:35:02;2.88;;;0.80;;
29816;SDS011;16805;52.956;5.906;2022-09-09T12:37:38;2.40;;;0.75;;
29816;SDS011;16805;52.956;5.906;2022-09-09T12:42:46;4.43;;;0.95;;
29816;SDS011;16805;52.956;5.906;2022-09-09T12:45:15;5.88;;;1.00;;
29816;SDS011;16805;52.956;5.906;2022-09-09T12:47:47;5.78;;;1.10;;
29816;SDS011;16805;52.956;5.906;2022-09-09T12:50:25;4.20;;;0.95;;
29816;SDS011;16805;52.956;5.906;2022-09-09T12:53:03;2.15;;;0.70;;
29816;SDS011;16805;52.956;5.906;2022-09-09T12:55:35;2.00;;;1.05;;
29816;SDS011;16805;52.956;5.906;2022-09-09T12:58:03;3.22;;;0.80;;
29816;SDS011;16805;52.956;5.906;2022-09-09T13:00:31;3.20;;;0.80;;
29816;SDS011;16805;52.956;5.906;2022-09-09T13:02:59;3.00;;;0.80;;
29816;SDS011;16805;52.956;5.906;2022-09-09T13:05:34;3.83;;;0.88;;
29816;SDS011;16805;52.956;5.906;2022-09-09T13:08:02;6.72;;;0.82;;
29816;SDS011;16805;52.956;5.906;2022-09-09T13:13:31;4.90;;;0.90;;
29816;SDS011;16805;52.956;5.906;2022-09-09T13:16:03;1.80;;;0.88;;
29816;SDS011;16805;52.956;5.906;2022-09-09T13:18:33;3.53;;;1.08;;
29816;SDS011;16805;52.956;5.906;2022-09-09T13:21:00;2.42;;;1.00;;
29816;SDS011;16805;52.956;5.906;2022-09-09T13:23:27;1.73;;;0.90;;
29816;SDS011;16805;52.956;5.906;2022-09-09T13:26:20;2.05;;;0.90;;
29816;SDS011;16805;52.956;5.906;2022-09-09T13:28:51;3.28;;;0.95;;
29816;SDS011;16805;52.956;5.906;2022-09-09T13:31:22;3.42;;;1.08;;
29816;SDS011;16805;52.956;5.906;2022-09-09T13:33:52;3.63;;;0.98;;
29816;SDS011;16805;52.956;5.906;2022-09-09T13:36:26;1.70;;;0.98;;
29816;SDS011;16805;52.956;5.906;2022-09-09T13:38:57;1.58;;;0.68;;
29816;SDS011;16805;52.956;5.906;2022-09-09T13:41:34;2.42;;;0.60;;
29816;SDS011;16805;52.956;5.906;2022-09-09T13:44:02;1.27;;;0.50;;
29816;SDS011;16805;52.956;5.906;2022-09-09T13:49:23;1.67;;;0.57;;
29816;SDS011;16805;52.956;5.906;2022-09-09T13:51:49;4.82;;;1.40;;
29816;SDS011;16805;52.956;5.906;2022-09-09T13:54:18;3.22;;;0.75;;
29816;SDS011;16805;52.956;5.906;2022-09-09T13:56:45;3.25;;;0.75;;
29816;SDS011;16805;52.956;5.906;2022-09-09T13:59:12;5.38;;;1.63;;
29816;SDS011;16805;52.956;5.906;2022-09-09T14:01:40;4.03;;;0.75;;
29816;SDS011;16805;52.956;5.906;2022-09-09T14:04:06;3.05;;;1.10;;
29816;SDS011;16805;52.956;5.906;2022-09-09T14:06:32;3.85;;;1.10;;
29816;SDS011;16805;52.956;5.906;2022-09-09T14:09:05;2.55;;;0.82;;
29816;SDS011;16805;52.956;5.906;2022-09-09T14:11:32;1.05;;;0.70;;
29816;SDS011;16805;52.956;5.906;2022-09-09T14:13:57;1.98;;;0.80;;
29816;SDS011;16805;52.956;5.906;2022-09-09T14:16:23;2.90;;;0.90;;
29816;SDS011;16805;52.956;5.906;2022-09-09T14:18:48;3.05;;;1.20;;
29816;SDS011;16805;52.956;5.906;2022-09-09T14:21:14;3.72;;;1.05;;
29816;SDS011;16805;52.956;5.906;2022-09-09T14:23:40;4.28;;;1.05;;
29816;SDS011;16805;52.956;5.906;2022-09-09T14:26:06;1.30;;;0.77;;
29816;SDS011;16805;52.956;5.906;2022-09-09T14:28:36;2.72;;;0.80;;
29816;SDS011;16805;52.956;5.906;2022-09-09T14:31:02;2.08;;;0.70;;
29816;SDS011;16805;52.956;5.906;2022-09-09T14:33:29;2.35;;;0.90;;
29816;SDS011;16805;52.956;5.906;2022-09-09T14:35:58;2.25;;;0.80;;
29816;SDS011;16805;52.956;5.906;2022-09-09T14:38:25;2.72;;;0.75;;
29816;SDS011;16805;52.956;5.906;2022-09-09T14:40:53;2.92;;;0.95;;
29816;SDS011;16805;52.956;5.906;2022-09-09T14:43:38;3.20;;;0.57;;
29816;SDS011;16805;52.956;5.906;2022-09-09T14:46:07;1.55;;;1.05;;
29816;SDS011;16805;52.956;5.906;2022-09-09T14:48:34;0.85;;;0.80;;
29816;SDS011;16805;52.956;5.906;2022-09-09T14:51:11;2.40;;;1.15;;
29816;SDS011;16805;52.956;5.906;2022-09-09T14:53:40;2.38;;;1.02;;
29816;SDS011;16805;52.956;5.906;2022-09-09T14:56:13;1.80;;;1.10;;
29816;SDS011;16805;52.956;5.906;2022-09-09T14:58:41;2.80;;;1.20;;
29816;SDS011;16805;52.956;5.906;2022-09-09T15:01:09;2.25;;;0.98;;
29816;SDS011;16805;52.956;5.906;2022-09-09T15:03:40;1.25;;;0.93;;
29816;SDS011;16805;52.956;5.906;2022-09-09T15:06:07;1.92;;;0.90;;
29816;SDS011;16805;52.956;5.906;2022-09-09T15:08:38;1.90;;;0.88;;
29816;SDS011;16805;52.956;5.906;2022-09-09T15:11:05;1.85;;;0.90;;
29816;SDS011;16805;52.956;5.906;2022-09-09T15:13:35;1.95;;;1.67;;
29816;SDS011;16805;52.956;5.906;2022-09-09T15:16:12;2.67;;;1.00;;
29816;SDS011;16805;52.956;5.906;2022-09-09T15:18:39;3.67;;;0.90;;
29816;SDS011;16805;52.956;5.906;2022-09-09T15:21:07;1.38;;;1.10;;
29816;SDS011;16805;52.956;5.906;2022-09-09T15:23:35;2.88;;;1.08;;
29816;SDS011;16805;52.956;5.906;2022-09-09T15:26:01;5.43;;;1.30;;
29816;SDS011;16805;52.956;5.906;2022-09-09T15:28:28;3.75;;;1.33;;
29816;SDS011;16805;52.956;5.906;2022-09-09T15:30:54;2.38;;;1.50;;
29816;SDS011;16805;52.956;5.906;2022-09-09T15:33:21;2.92;;;1.52;;
29816;SDS011;16805;52.956;5.906;2022-09-09T15:35:47;3.75;;;1.42;;
29816;SDS011;16805;52.956;5.906;2022-09-09T15:38:14;4.13;;;1.75;;
29816;SDS011;16805;52.956;5.906;2022-09-09T15:40:41;6.07;;;1.92;;
29816;SDS011;16805;52.956;5.906;2022-09-09T15:43:07;4.68;;;1.75;;
29816;SDS011;16805;52.956;5.906;2022-09-09T15:45:36;12.40;;;2.25;;
29816;SDS011;16805;52.956;5.906;2022-09-09T15:48:02;3.83;;;1.70;;
29816;SDS011;16805;52.956;5.906;2022-09-09T15:50:29;3.58;;;2.10;;
29816;SDS011;16805;52.956;5.906;2022-09-09T15:52:58;3.53;;;1.73;;
29816;SDS011;16805;52.956;5.906;2022-09-09T15:55:24;7.70;;;1.60;;
29816;SDS011;16805;52.956;5.906;2022-09-09T15:57:50;3.88;;;1.92;;
29816;SDS011;16805;52.956;5.906;2022-09-09T16:00:18;5.20;;;1.60;;
29816;SDS011;16805;52.956;5.906;2022-09-09T16:02:45;4.13;;;1.63;;
29816;SDS011;16805;52.956;5.906;2022-09-09T16:05:14;3.47;;;1.77;;
29816;SDS011;16805;52.956;5.906;2022-09-09T16:07:39;5.85;;;1.75;;
29816;SDS011;16805;52.956;5.906;2022-09-09T16:10:07;3.95;;;1.70;;
29816;SDS011;16805;52.956;5.906;2022-09-09T16:12:33;4.80;;;1.60;;
29816;SDS011;16805;52.956;5.906;2022-09-09T16:14:59;2.35;;;1.70;;
29816;SDS011;16805;52.956;5.906;2022-09-09T16:17:25;2.38;;;1.60;;
29816;SDS011;16805;52.956;5.906;2022-09-09T16:19:52;4.43;;;1.40;;
29816;SDS011;16805;52.956;5.906;2022-09-09T16:22:19;3.38;;;1.30;;
29816;SDS011;16805;52.956;5.906;2022-09-09T16:24:44;8.35;;;1.30;;
29816;SDS011;16805;52.956;5.906;2022-09-09T16:27:10;2.60;;;1.42;;
29816;SDS011;16805;52.956;5.906;2022-09-09T16:29:36;4.03;;;1.52;;
29816;SDS011;16805;52.956;5.906;2022-09-09T16:32:02;2.33;;;1.80;;
29816;SDS011;16805;52.956;5.906;2022-09-09T16:34:28;4.43;;;1.75;;
29816;SDS011;16805;52.956;5.906;2022-09-09T16:36:54;2.55;;;1.83;;
29816;SDS011;16805;52.956;5.906;2022-09-09T16:39:20;3.15;;;1.65;;
29816;SDS011;16805;52.956;5.906;2022-09-09T16:41:46;4.15;;;1.67;;
29816;SDS011;16805;52.956;5.906;2022-09-09T16:44:13;3.72;;;1.30;;
29816;SDS011;16805;52.956;5.906;2022-09-09T16:46:42;8.15;;;1.48;;
29816;SDS011;16805;52.956;5.906;2022-09-09T16:49:09;2.60;;;1.10;;
29816;SDS011;16805;52.956;5.906;2022-09-09T16:51:43;3.47;;;1.67;;
29816;SDS011;16805;52.956;5.906;2022-09-09T16:54:11;2.30;;;1.40;;
29816;SDS011;16805;52.956;5.906;2022-09-09T16:56:39;2.97;;;1.30;;
29816;SDS011;16805;52.956;5.906;2022-09-09T16:59:13;5.28;;;2.05;;
29816;SDS011;16805;52.956;5.906;2022-09-09T17:01:41;3.40;;;1.20;;
29816;SDS011;16805;52.956;5.906;2022-09-09T17:04:29;4.38;;;1.52;;
29816;SDS011;16805;52.956;5.906;2022-09-09T17:06:55;4.38;;;1.30;;
29816;SDS011;16805;52.956;5.906;2022-09-09T17:09:22;3.97;;;1.10;;
29816;SDS011;16805;52.956;5.906;2022-09-09T17:11:52;3.05;;;1.52;;
29816;SDS011;16805;52.956;5.906;2022-09-09T17:14:20;4.40;;;1.40;;
29816;SDS011;16805;52.956;5.906;2022-09-09T17:16:47;3.33;;;1.10;;
29816;SDS011;16805;52.956;5.906;2022-09-09T17:19:13;2.20;;;1.55;;
29816;SDS011;16805;52.956;5.906;2022-09-09T17:21:39;4.78;;;1.58;;
29816;SDS011;16805;52.956;5.906;2022-09-09T17:24:23;3.92;;;1.48;;
29816;SDS011;16805;52.956;5.906;2022-09-09T17:26:50;3.38;;;1.50;;
29816;SDS011;16805;52.956;5.906;2022-09-09T17:29:17;3.22;;;1.42;;
29816;SDS011;16805;52.956;5.906;2022-09-09T17:31:42;4.60;;;1.55;;
29816;SDS011;16805;52.956;5.906;2022-09-09T17:34:08;3.00;;;1.48;;
29816;SDS011;16805;52.956;5.906;2022-09-09T17:36:34;2.90;;;1.20;;
29816;SDS011;16805;52.956;5.906;2022-09-09T17:39:02;2.15;;;1.08;;
29816;SDS011;16805;52.956;5.906;2022-09-09T17:41:38;1.70;;;1.10;;